createdAt,value
2022-11-25T00:04:23.365Z,77.79
2022-11-25T00:09:27.631Z,77.06
2022-11-25T00:14:31.662Z,75.03
2022-11-25T00:19:37.388Z,73.32
2022-11-25T00:24:41.628Z,74.55
2022-11-25T00:29:46.018Z,70.61
2022-11-25T00:34:51.630Z,68.88
2022-11-25T00:39:56.056Z,68.18
2022-11-25T00:45:00.086Z,73.50
2022-11-25T00:50:06.738Z,75.99
2022-11-25T00:55:11.007Z,76.39
2022-11-25T01:00:15.797Z,76.98
2022-11-25T01:05:21.834Z,76.06
2022-11-25T01:10:27.790Z,74.91
2022-11-25T01:15:31.793Z,77.74
2022-11-25T01:20:37.191Z,78.61
2022-11-25T01:25:41.715Z,78.37
2022-11-25T01:30:45.751Z,78.25
2022-11-25T01:35:52.281Z,78.51
2022-11-25T01:40:56.268Z,78.06
2022-11-25T01:46:07.112Z,78.18
2022-11-25T01:51:21.308Z,78.08
2022-11-25T01:56:26.762Z,78.44
2022-11-25T02:01:30.809Z,78.13
2022-11-25T02:06:42.110Z,78.56
2022-11-25T02:11:47.151Z,78.86
2022-11-25T02:16:51.307Z,79.63
2022-11-25T02:22:04.500Z,80.33
2022-11-25T02:27:10.403Z,81.10
2022-11-25T02:32:14.657Z,81.68
2022-11-25T02:37:22.681Z,81.44
2022-11-25T02:42:29.779Z,81.38
2022-11-25T02:47:35.084Z,80.62
2022-11-25T02:52:39.669Z,80.30
2022-11-25T02:57:45.085Z,80.00
2022-11-25T03:02:49.759Z,80.49
2022-11-25T03:07:53.867Z,79.49
2022-11-25T03:13:00.496Z,77.63
2022-11-25T03:18:05.343Z,79.99
2022-11-25T03:23:10.305Z,80.76
2022-11-25T03:28:15.890Z,81.29
2022-11-25T03:33:20.677Z,81.57
2022-11-25T03:38:24.877Z,81.52
2022-11-25T03:43:31.592Z,79.79
2022-11-25T03:48:35.753Z,79.63
2022-11-25T03:53:40.100Z,80.73
2022-11-25T03:58:47.721Z,78.91
2022-11-25T04:03:54.736Z,79.73
2022-11-25T04:08:58.924Z,78.48
2022-11-25T04:14:04.995Z,76.52
2022-11-25T04:19:10.137Z,75.50
2022-11-25T04:24:15.755Z,73.25
2022-11-25T04:29:22.830Z,73.30
2022-11-25T04:34:27.139Z,72.52
2022-11-25T04:39:31.912Z,74.53
2022-11-25T04:44:42.177Z,74.37
2022-11-25T04:49:46.538Z,71.51
2022-11-25T04:54:51.663Z,66.06
2022-11-25T04:59:58.243Z,71.95
2022-11-25T05:05:03.276Z,73.09
2022-11-25T05:10:09.068Z,73.61
2022-11-25T05:15:19.694Z,70.77
2022-11-25T05:20:26.459Z,75.37
2022-11-25T05:25:30.687Z,75.85
2022-11-25T05:30:54.482Z,76.24
2022-11-25T05:36:00.640Z,77.66
2022-11-25T05:41:12.335Z,76.91
2022-11-25T05:46:19.915Z,76.11
2022-11-25T05:51:29.466Z,76.27
2022-11-25T05:56:34.572Z,77.18
2022-11-25T06:02:06.368Z,78.13
2022-11-25T06:07:10.753Z,77.66
2022-11-25T06:12:16.554Z,76.44
2022-11-25T06:17:27.282Z,77.02
2022-11-25T06:22:44.085Z,77.51
2022-11-25T06:28:11.788Z,77.23
2022-11-25T06:33:16.991Z,76.00
2022-11-25T06:38:24.534Z,75.48
2022-11-25T06:43:29.741Z,74.87
2022-11-25T06:48:35.550Z,74.11
2022-11-25T06:53:40.976Z,72.49
2022-11-25T06:58:46.000Z,72.31
2022-11-25T07:03:54.221Z,72.32
2022-11-25T07:08:58.698Z,71.12
2022-11-25T07:14:11.736Z,68.86
2022-11-25T07:19:19.256Z,68.67
2022-11-25T07:24:23.475Z,68.32
2022-11-25T07:34:53.844Z,64.20
2022-11-25T07:40:00.235Z,62.94
2022-11-25T07:45:04.875Z,57.69
2022-11-25T07:50:25.331Z,62.57
2022-11-25T07:55:30.788Z,63.96
2022-11-25T08:00:35.188Z,61.72
2022-11-25T08:05:42.847Z,61.53
2022-11-25T08:10:46.903Z,61.12
2022-11-25T08:15:50.964Z,59.76
2022-11-25T08:21:00.162Z,59.20
2022-11-25T08:26:05.387Z,61.52
2022-11-25T08:31:11.706Z,62.01
2022-11-25T08:36:18.360Z,53.45
2022-11-25T08:41:25.814Z,49.55
2022-11-25T08:46:33.445Z,47.59
2022-11-25T08:51:40.184Z,44.76
2022-11-25T08:56:44.646Z,43.88
2022-11-25T09:01:49.716Z,42.47
2022-11-25T09:06:55.423Z,39.93
2022-11-25T09:12:00.489Z,40.28
2022-11-25T09:17:09.009Z,39.05
2022-11-25T09:22:14.866Z,37.85
2022-11-25T09:27:18.939Z,33.35
2022-11-25T09:32:23.299Z,29.74
2022-11-25T09:37:29.066Z,30.39
2022-11-25T09:43:05.827Z,28.25
2022-11-25T09:48:35.692Z,25.97
2022-11-25T09:53:44.208Z,25.80
2022-11-25T09:58:53.641Z,26.68
2022-11-25T10:04:03.383Z,30.74
2022-11-25T10:09:14.664Z,32.18
2022-11-25T10:14:28.274Z,34.21
2022-11-25T10:19:44.879Z,36.09
2022-11-25T10:24:52.425Z,37.83
2022-11-25T10:30:06.007Z,39.67
2022-11-25T10:35:20.684Z,40.14
2022-11-25T10:40:26.123Z,38.22
2022-11-25T10:45:34.694Z,39.50
2022-11-25T10:50:51.918Z,40.91
2022-11-25T10:56:03.632Z,41.17
2022-11-25T11:01:15.528Z,41.49
2022-11-25T11:06:39.039Z,41.29
2022-11-25T11:11:50.348Z,41.40
2022-11-25T11:16:56.312Z,40.56
2022-11-25T11:22:17.768Z,38.01
2022-11-25T11:27:25.896Z,38.90
2022-11-25T11:32:30.514Z,39.02
2022-11-25T11:37:42.781Z,39.16
2022-11-25T11:43:02.127Z,40.66
2022-11-25T11:48:18.780Z,40.98
2022-11-25T11:53:31.671Z,41.93
2022-11-25T11:59:00.659Z,45.81
2022-11-25T12:04:19.052Z,42.02
2022-11-25T12:09:27.073Z,45.33
2022-11-25T12:14:41.084Z,44.21
2022-11-25T12:19:53.617Z,49.71
2022-11-25T12:25:08.896Z,50.94
2022-11-25T12:30:17.525Z,49.89
2022-11-25T12:35:35.106Z,46.86
2022-11-25T12:40:45.851Z,43.72
2022-11-25T12:46:03.061Z,47.89
2022-11-25T12:51:17.907Z,54.14
2022-11-25T12:56:28.901Z,54.17
2022-11-25T13:01:58.311Z,56.11
2022-11-25T13:07:30.460Z,55.40
2022-11-25T13:12:45.392Z,56.32
2022-11-25T13:17:56.323Z,55.80
2022-11-25T13:23:04.472Z,57.57
2022-11-25T13:28:30.458Z,59.86
2022-11-25T13:34:02.139Z,60.50
2022-11-25T13:39:14.463Z,60.50
2022-11-25T13:44:32.024Z,61.82
2022-11-25T13:49:51.967Z,61.81
2022-11-25T13:54:58.372Z,61.90
2022-11-25T14:00:07.305Z,61.19
2022-11-25T14:05:38.359Z,61.15
2022-11-25T14:10:47.418Z,59.29
2022-11-25T14:16:08.016Z,54.27
2022-11-25T14:21:30.925Z,53.15
2022-11-25T14:26:49.895Z,59.60
2022-11-25T14:32:01.326Z,57.78
2022-11-25T14:37:14.552Z,61.55
2022-11-25T14:42:23.595Z,62.21
2022-11-25T14:47:33.283Z,61.74
2022-11-25T14:52:43.942Z,64.13
2022-11-25T14:57:48.106Z,62.98
2022-11-25T15:02:56.895Z,64.64
2022-11-25T15:08:05.070Z,65.46
2022-11-25T15:13:16.198Z,64.41
2022-11-25T15:18:23.254Z,64.83
2022-11-25T15:23:36.825Z,65.10
2022-11-25T15:28:42.020Z,65.26
2022-11-25T15:33:47.140Z,65.30
2022-11-25T15:38:53.921Z,65.62
2022-11-25T15:44:02.358Z,63.50
2022-11-25T15:49:16.765Z,57.52
2022-11-25T15:54:25.960Z,65.76
2022-11-25T15:59:51.277Z,63.90
2022-11-25T16:05:15.513Z,62.51
2022-11-25T16:10:23.465Z,55.32
2022-11-25T16:15:46.429Z,53.74
2022-11-25T16:20:53.468Z,53.23
2022-11-25T16:26:02.437Z,52.86
2022-11-25T16:31:06.916Z,53.46
2022-11-25T16:36:11.174Z,53.10
2022-11-25T16:41:25.653Z,53.36
2022-11-25T16:46:29.838Z,53.89
2022-11-25T16:51:33.961Z,53.89
2022-11-25T16:56:43.231Z,53.86
2022-11-25T17:01:47.885Z,53.86
2022-11-25T17:07:24.363Z,53.52
2022-11-25T17:12:27.099Z,53.37
2022-11-25T17:17:31.383Z,54.18
2022-11-25T17:22:39.578Z,54.24
2022-11-25T17:27:49.112Z,53.70
2022-11-25T17:32:58.480Z,53.93
2022-11-25T17:38:02.209Z,54.40
2022-11-25T17:43:08.468Z,54.57
2022-11-25T17:48:14.357Z,54.74
2022-11-25T17:53:18.344Z,55.26
2022-11-25T17:58:26.438Z,55.05
2022-11-25T18:03:30.557Z,55.11
2022-11-25T18:08:36.050Z,55.53
2022-11-25T18:13:42.749Z,55.59
2022-11-25T18:18:49.165Z,56.05
2022-11-25T18:23:53.748Z,55.33
2022-11-25T18:29:00.199Z,55.62
2022-11-25T18:34:04.149Z,55.18
2022-11-25T18:39:08.067Z,55.90
2022-11-25T18:44:25.911Z,55.90
2022-11-25T18:49:30.615Z,55.55
2022-11-25T18:54:35.485Z,55.23
2022-11-25T18:59:43.690Z,54.79
2022-11-25T19:04:48.092Z,54.35
2022-11-25T19:09:52.655Z,54.78
2022-11-25T19:14:59.003Z,58.34
2022-11-25T19:20:03.974Z,59.21
2022-11-25T19:25:09.500Z,59.56
2022-11-25T19:30:38.044Z,61.15
2022-11-25T19:35:42.463Z,59.86
2022-11-25T19:40:49.816Z,60.00
2022-11-25T19:46:06.221Z,60.56
2022-11-25T19:51:13.457Z,60.27
2022-11-25T19:56:24.186Z,60.35
2022-11-25T20:01:57.304Z,60.88
2022-11-25T20:07:07.133Z,61.15
2022-11-25T20:12:22.177Z,61.87
2022-11-25T20:17:29.868Z,62.72
2022-11-25T20:22:37.775Z,62.03
2022-11-25T20:27:43.575Z,64.16
2022-11-25T20:32:49.357Z,63.58
2022-11-25T20:37:58.224Z,64.31
2022-11-25T20:43:02.914Z,63.46
2022-11-25T20:48:12.736Z,63.12
2022-11-25T20:53:18.316Z,64.21
2022-11-25T20:58:24.427Z,64.53
2022-11-25T21:03:30.057Z,66.68
2022-11-25T21:08:34.061Z,67.94
2022-11-25T21:13:38.001Z,67.48
2022-11-25T21:18:44.178Z,68.23
2022-11-25T21:23:49.697Z,68.13
2022-11-25T21:28:56.074Z,68.60
2022-11-25T21:34:02.810Z,69.25
2022-11-25T21:39:10.030Z,70.17
2022-11-25T21:44:22.965Z,69.62
2022-11-25T21:49:29.183Z,69.45
2022-11-25T21:54:33.574Z,70.36
2022-11-25T21:59:37.558Z,70.95
2022-11-25T22:04:42.955Z,71.43
2022-11-25T22:09:48.018Z,72.66
2022-11-25T22:14:52.422Z,73.11
2022-11-25T22:19:58.697Z,73.80
2022-11-25T22:25:04.950Z,73.40
2022-11-25T22:30:16.378Z,73.32
2022-11-25T22:35:22.451Z,73.56
2022-11-25T22:40:26.745Z,72.92
2022-11-25T22:45:33.424Z,74.35
2022-11-25T22:50:39.524Z,75.84
2022-11-25T22:55:46.214Z,75.04
2022-11-25T23:00:52.808Z,74.15
2022-11-25T23:05:58.949Z,75.26
2022-11-25T23:11:03.334Z,76.24
2022-11-25T23:16:07.883Z,77.13
2022-11-25T23:21:17.795Z,78.29
2022-11-25T23:26:21.974Z,78.21
2022-11-25T23:31:26.460Z,78.02
2022-11-25T23:36:41.180Z,76.98
2022-11-25T23:41:45.802Z,75.90
2022-11-25T23:46:50.681Z,75.31
2022-11-25T23:52:04.609Z,75.03
2022-11-25T23:57:15.688Z,76.35
